createdAt,value
2023-08-05T00:02:14.624Z,5.70
2023-08-05T00:05:00.631Z,6.32
2023-08-05T00:07:46.723Z,5.70
2023-08-05T00:10:32.720Z,5.55
2023-08-05T00:13:19.001Z,5.53
2023-08-05T00:16:07.886Z,5.55
2023-08-05T00:18:53.849Z,5.72
2023-08-05T00:21:39.889Z,5.97
2023-08-05T00:24:25.968Z,6.45
2023-08-05T00:27:12.020Z,7.07
2023-08-05T00:29:58.234Z,6.65
2023-08-05T00:32:45.065Z,6.72
2023-08-05T00:35:31.214Z,7.05
2023-08-05T00:38:17.314Z,6.75
2023-08-05T00:41:04.616Z,5.88
2023-08-05T00:43:50.527Z,5.78
2023-08-05T00:46:36.730Z,5.70
2023-08-05T00:49:22.830Z,6.53
2023-08-05T00:52:09.910Z,6.85
2023-08-05T00:54:56.330Z,6.65
2023-08-05T00:57:42.767Z,6.18
2023-08-05T01:00:28.980Z,6.45
2023-08-05T01:03:15.694Z,6.28
2023-08-05T01:06:02.555Z,6.82
2023-08-05T01:08:48.962Z,6.45
2023-08-05T01:11:36.943Z,5.70
2023-08-05T01:14:23.108Z,5.82
2023-08-05T01:17:08.937Z,6.32
2023-08-05T01:19:55.239Z,6.78
2023-08-05T01:22:43.809Z,6.70
2023-08-05T01:25:33.397Z,6.65
2023-08-05T01:28:19.850Z,8.15
2023-08-05T01:31:07.706Z,13.32
2023-08-05T01:33:53.844Z,9.60
2023-08-05T01:36:39.969Z,6.50
2023-08-05T01:39:26.345Z,5.93
2023-08-05T01:42:12.423Z,6.40
2023-08-05T01:44:58.586Z,5.70
2023-08-05T01:47:44.694Z,6.03
2023-08-05T01:50:30.568Z,6.90
2023-08-05T01:53:16.696Z,6.25
2023-08-05T01:56:02.672Z,5.38
2023-08-05T01:58:48.774Z,5.88
2023-08-05T02:01:46.873Z,5.82
2023-08-05T02:04:32.704Z,6.00
2023-08-05T02:07:18.686Z,6.22
2023-08-05T02:10:05.017Z,6.20
2023-08-05T02:12:51.327Z,6.30
2023-08-05T02:15:37.419Z,5.95
2023-08-05T02:18:23.615Z,5.82
2023-08-05T02:21:09.653Z,7.05
2023-08-05T02:23:56.818Z,6.65
2023-08-05T02:26:43.065Z,7.30
2023-08-05T02:29:30.427Z,6.88
2023-08-05T02:32:16.543Z,5.82
2023-08-05T02:35:02.454Z,6.35
2023-08-05T02:37:48.445Z,5.68
2023-08-05T02:40:34.832Z,6.03
2023-08-05T02:43:20.800Z,5.40
2023-08-05T02:46:06.841Z,5.93
2023-08-05T02:48:52.692Z,6.05
2023-08-05T02:51:38.898Z,6.05
2023-08-05T02:54:25.133Z,6.53
2023-08-05T02:57:11.119Z,6.30
2023-08-05T02:59:56.999Z,7.30
2023-08-05T03:02:42.919Z,7.40
2023-08-05T03:05:29.207Z,7.00
2023-08-05T03:08:15.373Z,6.85
2023-08-05T03:11:02.517Z,7.05
2023-08-05T03:13:51.197Z,6.68
2023-08-05T03:16:38.579Z,6.40
2023-08-05T03:19:32.872Z,5.95
2023-08-05T03:22:18.843Z,6.03
2023-08-05T03:25:06.212Z,5.70
2023-08-05T03:27:52.683Z,6.20
2023-08-05T03:30:39.808Z,6.25
2023-08-05T03:33:29.928Z,5.95
2023-08-05T03:36:17.317Z,6.68
2023-08-05T03:39:03.955Z,6.65
2023-08-05T03:41:50.368Z,6.38
2023-08-05T03:44:36.272Z,6.65
2023-08-05T03:47:22.482Z,6.60
2023-08-05T03:50:09.785Z,6.70
2023-08-05T03:52:56.416Z,7.43
2023-08-05T03:55:42.586Z,7.80
2023-08-05T03:58:29.750Z,6.32
2023-08-05T04:01:18.416Z,6.57
2023-08-05T04:04:04.793Z,6.68
2023-08-05T04:06:51.189Z,6.57
2023-08-05T04:09:38.340Z,7.28
2023-08-05T04:12:24.233Z,7.25
2023-08-05T04:15:12.905Z,6.28
2023-08-05T04:18:01.362Z,6.60
2023-08-05T04:20:49.444Z,6.68
2023-08-05T04:23:36.224Z,6.70
2023-08-05T04:26:22.380Z,6.80
2023-08-05T04:29:11.235Z,6.05
2023-08-05T04:31:57.776Z,7.03
2023-08-05T04:34:45.214Z,7.38
2023-08-05T04:37:32.619Z,8.07
2023-08-05T04:40:18.584Z,6.80
2023-08-05T04:43:04.545Z,6.40
2023-08-05T04:45:55.518Z,7.22
2023-08-05T04:48:41.652Z,6.93
2023-08-05T04:51:27.642Z,6.10
2023-08-05T04:54:13.704Z,5.80
2023-08-05T04:56:59.502Z,6.80
2023-08-05T04:59:45.630Z,6.53
2023-08-05T05:02:31.651Z,7.13
2023-08-05T05:05:17.665Z,5.47
2023-08-05T05:08:04.009Z,6.15
2023-08-05T05:10:50.088Z,6.13
2023-08-05T05:13:36.644Z,6.75
2023-08-05T05:16:22.946Z,6.05
2023-08-05T05:19:09.109Z,7.40
2023-08-05T05:21:56.435Z,6.88
2023-08-05T05:24:42.752Z,7.18
2023-08-05T05:27:28.630Z,9.32
2023-08-05T05:30:14.772Z,21.80
2023-08-05T05:33:00.789Z,17.27
2023-08-05T05:35:46.650Z,54.60
2023-08-05T05:38:32.669Z,48.15
2023-08-05T05:41:18.476Z,35.60
2023-08-05T05:44:05.517Z,24.25
2023-08-05T05:46:51.805Z,18.77
2023-08-05T05:49:38.144Z,15.00
2023-08-05T05:52:24.075Z,15.88
2023-08-05T05:55:10.300Z,14.90
2023-08-05T05:57:56.334Z,18.15
2023-08-05T06:00:42.925Z,15.98
2023-08-05T06:03:29.090Z,11.50
2023-08-05T06:06:15.016Z,9.85
2023-08-05T06:09:02.249Z,10.40
2023-08-05T06:11:49.091Z,9.23
2023-08-05T06:14:35.942Z,9.10
2023-08-05T06:17:22.312Z,9.10
2023-08-05T06:20:09.749Z,8.82
2023-08-05T06:22:55.710Z,8.80
2023-08-05T06:25:42.772Z,9.50
2023-08-05T06:28:28.915Z,10.63
2023-08-05T06:31:14.945Z,9.77
2023-08-05T06:34:00.897Z,8.70
2023-08-05T06:36:47.122Z,9.85
2023-08-05T06:39:36.288Z,8.98
2023-08-05T06:42:25.190Z,8.40
2023-08-05T06:45:11.404Z,8.57
2023-08-05T06:47:57.653Z,8.73
2023-08-05T06:50:43.581Z,8.68
2023-08-05T06:53:30.425Z,8.52
2023-08-05T06:56:16.509Z,7.50
2023-08-05T06:59:02.726Z,6.80
2023-08-05T07:01:48.981Z,8.05
2023-08-05T07:04:35.295Z,6.57
2023-08-05T07:07:21.587Z,6.03
2023-08-05T07:10:09.512Z,6.32
2023-08-05T07:12:55.981Z,7.45
2023-08-05T07:15:41.914Z,5.80
2023-08-05T07:18:27.786Z,5.32
2023-08-05T07:21:16.169Z,4.55
2023-08-05T07:24:02.494Z,4.80
2023-08-05T07:26:48.621Z,3.67
2023-08-05T07:29:34.808Z,4.28
2023-08-05T07:32:20.716Z,4.00
2023-08-05T07:35:08.952Z,3.50
2023-08-05T07:37:56.726Z,3.72
2023-08-05T07:40:44.573Z,3.70
2023-08-05T07:43:33.309Z,3.72
2023-08-05T07:46:20.876Z,3.80
2023-08-05T07:49:08.353Z,3.10
2023-08-05T07:51:55.145Z,3.22
2023-08-05T07:54:41.193Z,3.67
2023-08-05T07:57:27.179Z,3.35
2023-08-05T08:00:14.750Z,3.63
2023-08-05T08:03:00.802Z,3.75
2023-08-05T08:05:46.725Z,3.50
2023-08-05T08:08:32.981Z,3.30
2023-08-05T08:11:19.335Z,3.50
2023-08-05T08:14:05.834Z,3.83
2023-08-05T08:16:51.797Z,3.60
2023-08-05T08:19:38.064Z,4.50
2023-08-05T08:22:24.166Z,3.20
2023-08-05T08:25:10.515Z,2.80
2023-08-05T08:27:56.757Z,3.03
2023-08-05T08:30:56.483Z,3.30
2023-08-05T08:33:42.805Z,2.95
2023-08-05T08:36:28.868Z,3.30
2023-08-05T08:39:14.800Z,3.28
2023-08-05T08:42:00.788Z,2.85
2023-08-05T08:44:46.963Z,3.53
2023-08-05T08:47:33.904Z,3.10
2023-08-05T08:50:20.572Z,3.20
2023-08-05T08:53:09.892Z,3.03
2023-08-05T08:55:56.508Z,3.35
2023-08-05T08:58:42.836Z,2.72
2023-08-05T09:01:29.422Z,3.20
2023-08-05T09:04:16.612Z,3.75
2023-08-05T09:07:03.319Z,2.85
2023-08-05T09:09:49.763Z,3.65
2023-08-05T09:12:36.167Z,2.45
2023-08-05T09:15:22.469Z,3.95
2023-08-05T09:18:09.864Z,5.57
2023-08-05T09:21:00.654Z,3.75
2023-08-05T09:23:47.734Z,3.25
2023-08-05T09:26:36.941Z,3.47
2023-08-05T09:29:24.084Z,4.50
2023-08-05T09:32:15.040Z,3.40
2023-08-05T09:35:01.668Z,4.05
2023-08-05T09:37:52.904Z,3.33
2023-08-05T09:40:42.658Z,2.80
2023-08-05T09:43:35.447Z,2.70
2023-08-05T09:46:23.186Z,3.38
2023-08-05T09:49:10.071Z,3.03
2023-08-05T09:51:56.901Z,3.28
2023-08-05T09:54:45.910Z,3.08
2023-08-05T09:57:33.058Z,2.65
2023-08-05T10:00:18.916Z,3.00
2023-08-05T10:03:08.855Z,3.60
2023-08-05T10:05:57.050Z,3.13
2023-08-05T10:08:43.678Z,3.45
2023-08-05T10:11:29.997Z,3.67
2023-08-05T10:14:16.212Z,4.43
2023-08-05T10:17:03.201Z,3.88
2023-08-05T10:19:51.832Z,3.47
2023-08-05T10:22:39.224Z,3.60
2023-08-05T10:26:01.143Z,3.13
2023-08-05T10:28:47.334Z,3.00
2023-08-05T10:31:37.465Z,3.47
2023-08-05T10:34:23.594Z,3.30
2023-08-05T10:37:09.666Z,3.20
2023-08-05T10:40:01.986Z,3.22
2023-08-05T10:42:48.417Z,3.30
2023-08-05T10:45:36.027Z,3.13
2023-08-05T10:48:28.594Z,4.25
2023-08-05T10:51:17.555Z,3.95
2023-08-05T10:54:04.611Z,4.93
2023-08-05T10:56:50.459Z,3.55
2023-08-05T11:00:01.971Z,3.95
2023-08-05T11:02:50.763Z,3.17
2023-08-05T11:05:39.315Z,3.90
2023-08-05T11:08:27.262Z,4.05
2023-08-05T11:11:14.767Z,4.40
2023-08-05T11:14:01.915Z,2.88
2023-08-05T11:16:48.349Z,5.35
2023-08-05T11:19:54.006Z,3.20
2023-08-05T11:22:40.449Z,1.80
2023-08-05T11:25:26.565Z,2.30
2023-08-05T11:28:12.669Z,1.63
2023-08-05T11:30:59.390Z,2.30
2023-08-05T11:33:49.334Z,1.80
2023-08-05T11:36:35.239Z,2.20
2023-08-05T11:39:27.589Z,3.22
2023-08-05T11:42:13.846Z,3.88
2023-08-05T11:45:00.378Z,5.00
2023-08-05T11:47:46.714Z,3.85
2023-08-05T11:50:37.165Z,4.53
2023-08-05T11:53:23.317Z,3.72
2023-08-05T11:56:10.538Z,4.03
2023-08-05T11:58:58.077Z,4.30
2023-08-05T12:01:44.152Z,3.70
2023-08-05T12:04:30.231Z,3.60
2023-08-05T12:07:21.124Z,3.45
2023-08-05T12:10:13.361Z,3.65
2023-08-05T12:13:03.119Z,4.43
2023-08-05T12:15:49.487Z,3.97
2023-08-05T12:18:43.225Z,3.97
2023-08-05T12:21:29.361Z,4.03
2023-08-05T12:24:15.285Z,4.35
2023-08-05T12:27:01.540Z,3.30
2023-08-05T12:29:47.965Z,3.38
2023-08-05T12:32:37.480Z,3.05
2023-08-05T12:35:23.674Z,2.80
2023-08-05T12:38:09.884Z,2.58
2023-08-05T12:40:55.978Z,2.63
2023-08-05T12:43:41.910Z,2.85
2023-08-05T12:46:27.823Z,2.40
2023-08-05T12:49:14.835Z,2.22
2023-08-05T12:52:02.965Z,3.47
2023-08-05T12:54:50.249Z,2.00
2023-08-05T12:57:36.462Z,1.90
2023-08-05T13:00:22.743Z,1.98
2023-08-05T13:03:08.777Z,2.00
2023-08-05T13:05:55.224Z,2.08
2023-08-05T13:08:41.183Z,2.03
2023-08-05T13:11:26.990Z,2.00
2023-08-05T13:14:13.631Z,1.83
2023-08-05T13:16:59.639Z,1.80
2023-08-05T13:19:45.575Z,2.28
2023-08-05T13:22:31.749Z,2.00
2023-08-05T13:25:18.314Z,1.67
2023-08-05T13:28:04.385Z,1.48
2023-08-05T13:30:50.691Z,1.45
2023-08-05T13:33:38.654Z,1.70
2023-08-05T13:36:25.402Z,1.48
2023-08-05T13:39:11.550Z,1.40
2023-08-05T13:42:01.536Z,2.10
2023-08-05T13:44:47.689Z,1.70
2023-08-05T13:47:33.574Z,1.67
2023-08-05T13:50:21.116Z,1.58
2023-08-05T13:53:07.509Z,1.40
2023-08-05T13:56:00.896Z,1.73
2023-08-05T13:58:46.789Z,2.15
2023-08-05T14:01:32.706Z,1.90
2023-08-05T14:04:18.815Z,1.85
2023-08-05T14:07:05.551Z,1.70
2023-08-05T14:09:52.195Z,2.00
2023-08-05T14:12:38.602Z,2.00
2023-08-05T14:15:24.923Z,2.25
2023-08-05T14:18:11.123Z,2.28
2023-08-05T14:20:57.282Z,1.90
2023-08-05T14:23:43.249Z,1.60
2023-08-05T14:26:30.245Z,1.75
2023-08-05T14:29:18.212Z,2.10
2023-08-05T14:32:05.016Z,1.75
2023-08-05T14:34:58.989Z,1.80
2023-08-05T14:37:53.562Z,1.97
2023-08-05T14:40:39.984Z,1.70
2023-08-05T14:43:26.052Z,1.75
2023-08-05T14:46:12.424Z,2.70
2023-08-05T14:48:58.561Z,2.25
2023-08-05T14:51:44.440Z,1.98
2023-08-05T14:54:30.486Z,1.90
2023-08-05T14:57:16.414Z,1.83
2023-08-05T15:00:02.534Z,3.10
2023-08-05T15:02:50.176Z,2.35
2023-08-05T15:05:36.446Z,2.10
2023-08-05T15:08:25.426Z,2.50
2023-08-05T15:11:14.793Z,3.83
2023-08-05T15:14:00.954Z,3.25
2023-08-05T15:16:47.058Z,3.63
2023-08-05T15:19:33.036Z,2.35
2023-08-05T15:22:19.607Z,2.30
2023-08-05T15:25:06.291Z,2.75
2023-08-05T15:27:52.396Z,2.60
2023-08-05T15:30:39.508Z,2.65
2023-08-05T15:33:26.507Z,2.83
2023-08-05T15:36:17.590Z,2.65
2023-08-05T15:39:04.703Z,2.40
2023-08-05T15:41:54.574Z,2.38
2023-08-05T15:44:41.091Z,2.70
2023-08-05T15:47:26.981Z,2.15
2023-08-05T15:50:19.286Z,2.60
2023-08-05T15:53:05.547Z,2.33
2023-08-05T15:56:01.784Z,1.98
2023-08-05T15:58:48.239Z,2.00
2023-08-05T16:01:36.856Z,2.00
2023-08-05T16:04:24.313Z,2.42
2023-08-05T16:07:10.631Z,2.13
2023-08-05T16:09:57.055Z,2.13
2023-08-05T16:12:42.916Z,2.88
2023-08-05T16:15:29.058Z,2.83
2023-08-05T16:18:17.913Z,2.10
2023-08-05T16:21:18.559Z,2.38
2023-08-05T16:24:04.670Z,2.15
2023-08-05T16:26:55.378Z,2.88
2023-08-05T16:29:43.224Z,2.20
2023-08-05T16:32:35.775Z,2.90
2023-08-05T16:35:23.414Z,2.67
2023-08-05T16:38:10.051Z,2.72
2023-08-05T16:40:56.311Z,3.15
2023-08-05T16:43:42.353Z,2.80
2023-08-05T16:46:42.904Z,3.00
2023-08-05T16:49:34.572Z,2.88
2023-08-05T16:52:20.580Z,2.88
2023-08-05T16:55:06.909Z,3.05
2023-08-05T16:57:55.245Z,2.60
2023-08-05T17:00:41.280Z,3.10
2023-08-05T17:03:27.094Z,2.95
2023-08-05T17:06:13.757Z,3.20
2023-08-05T17:08:59.878Z,2.90
2023-08-05T17:11:45.899Z,2.40
2023-08-05T17:14:31.830Z,2.67
2023-08-05T17:17:17.811Z,2.88
2023-08-05T17:20:04.964Z,3.58
2023-08-05T17:22:50.987Z,2.90
2023-08-05T17:25:44.583Z,3.20
2023-08-05T17:28:30.565Z,3.80
2023-08-05T17:31:16.699Z,4.20
2023-08-05T17:34:02.704Z,4.60
2023-08-05T17:36:48.600Z,4.07
2023-08-05T17:39:34.824Z,4.05
2023-08-05T17:42:20.811Z,4.18
2023-08-05T17:45:07.314Z,3.60
2023-08-05T17:47:53.448Z,3.25
2023-08-05T17:50:39.356Z,3.65
2023-08-05T17:53:25.982Z,3.60
2023-08-05T17:56:12.244Z,4.38
2023-08-05T17:58:58.339Z,3.60
2023-08-05T18:01:45.497Z,3.35
2023-08-05T18:04:32.238Z,3.42
2023-08-05T18:07:18.353Z,3.33
2023-08-05T18:10:04.657Z,3.08
2023-08-05T18:12:50.957Z,2.90
2023-08-05T18:15:36.913Z,3.15
2023-08-05T18:18:23.110Z,3.15
2023-08-05T18:21:09.806Z,3.70
2023-08-05T18:23:58.743Z,3.72
2023-08-05T18:26:45.376Z,5.50
2023-08-05T18:29:31.581Z,4.28
2023-08-05T18:32:20.799Z,4.13
2023-08-05T18:35:08.742Z,3.75
2023-08-05T18:37:54.921Z,4.15
2023-08-05T18:40:41.231Z,3.83
2023-08-05T18:43:27.477Z,3.92
2023-08-05T18:46:13.804Z,3.95
2023-08-05T18:49:00.170Z,3.85
2023-08-05T18:51:46.507Z,3.70
2023-08-05T18:54:33.159Z,3.13
2023-08-05T18:57:19.380Z,3.15
2023-08-05T19:00:06.926Z,3.10
2023-08-05T19:02:53.033Z,3.25
2023-08-05T19:05:39.110Z,4.20
2023-08-05T19:08:25.176Z,3.00
2023-08-05T19:11:15.888Z,3.10
2023-08-05T19:14:03.238Z,3.15
2023-08-05T19:16:49.458Z,3.70
2023-08-05T19:19:38.161Z,3.95
2023-08-05T19:22:24.274Z,4.72
2023-08-05T19:25:10.205Z,4.07
2023-08-05T19:27:56.181Z,5.40
2023-08-05T19:30:44.724Z,4.90
2023-08-05T19:33:30.817Z,3.67
2023-08-05T19:36:18.289Z,4.07
2023-08-05T19:39:04.670Z,4.95
2023-08-05T19:41:51.089Z,9.15
2023-08-05T19:44:37.399Z,5.63
2023-08-05T19:47:23.712Z,5.65
2023-08-05T19:50:10.074Z,3.95
2023-08-05T19:52:56.175Z,3.22
2023-08-05T19:55:42.269Z,4.30
2023-08-05T19:58:28.344Z,4.90
2023-08-05T20:01:14.410Z,4.05
2023-08-05T20:04:00.421Z,4.40
2023-08-05T20:06:46.492Z,4.25
2023-08-05T20:09:32.956Z,4.30
2023-08-05T20:12:21.699Z,4.65
2023-08-05T20:15:08.238Z,4.80
2023-08-05T20:17:54.256Z,4.97
2023-08-05T20:20:40.322Z,4.40
2023-08-05T20:23:27.547Z,4.32
2023-08-05T20:26:15.057Z,4.70
2023-08-05T20:29:01.293Z,5.10
2023-08-05T20:31:47.592Z,4.82
2023-08-05T20:34:33.994Z,5.40
2023-08-05T20:37:20.862Z,4.95
2023-08-05T20:40:08.231Z,6.85
2023-08-05T20:42:54.386Z,6.40
2023-08-05T20:45:40.333Z,6.40
2023-08-05T20:48:26.527Z,6.43
2023-08-05T20:51:12.522Z,6.10
2023-08-05T20:53:58.446Z,5.80
2023-08-05T20:56:44.404Z,6.45
2023-08-05T20:59:30.409Z,6.18
2023-08-05T21:02:17.835Z,6.50
2023-08-05T21:05:05.662Z,6.45
2023-08-05T21:07:52.191Z,7.18
2023-08-05T21:10:38.011Z,6.13
2023-08-05T21:13:24.100Z,4.60
2023-08-05T21:16:10.902Z,6.90
2023-08-05T21:18:59.520Z,7.85
2023-08-05T21:21:45.796Z,8.20
2023-08-05T21:24:31.933Z,5.25
2023-08-05T21:27:17.812Z,5.35
2023-08-05T21:30:04.344Z,5.32
2023-08-05T21:32:50.582Z,5.53
2023-08-05T21:35:36.506Z,5.15
2023-08-05T21:38:22.688Z,5.45
2023-08-05T21:41:10.165Z,4.82
2023-08-05T21:43:56.407Z,5.28
2023-08-05T21:46:42.370Z,5.32
2023-08-05T21:49:28.152Z,5.80
2023-08-05T21:52:14.322Z,5.97
2023-08-05T21:55:00.706Z,5.80
2023-08-05T21:57:46.564Z,5.45
2023-08-05T22:00:33.212Z,5.80
2023-08-05T22:03:19.272Z,6.30
2023-08-05T22:06:06.870Z,5.75
2023-08-05T22:08:53.190Z,4.88
2023-08-05T22:11:40.547Z,5.20
2023-08-05T22:14:26.367Z,5.15
2023-08-05T22:17:12.383Z,4.90
2023-08-05T22:19:58.505Z,3.97
2023-08-05T22:22:44.442Z,4.43
2023-08-05T22:25:30.531Z,4.82
2023-08-05T22:28:16.490Z,5.10
2023-08-05T22:31:02.279Z,5.78
2023-08-05T22:33:48.358Z,5.20
2023-08-05T22:36:34.297Z,5.13
2023-08-05T22:39:20.391Z,4.68
2023-08-05T22:42:07.182Z,4.32
2023-08-05T22:44:54.602Z,3.45
2023-08-05T22:47:40.506Z,3.97
2023-08-05T22:50:26.842Z,3.90
2023-08-05T22:53:12.902Z,3.55
2023-08-05T22:56:02.947Z,3.58
2023-08-05T22:58:55.004Z,3.72
2023-08-05T23:04:27.160Z,4.00
2023-08-05T23:07:13.250Z,4.15
2023-08-05T23:09:59.602Z,4.35
2023-08-05T23:12:45.713Z,4.40
2023-08-05T23:15:34.737Z,3.80
2023-08-05T23:18:20.729Z,4.65
2023-08-05T23:21:07.240Z,3.40
2023-08-05T23:23:53.479Z,3.58
2023-08-05T23:26:39.738Z,3.90
2023-08-05T23:29:25.994Z,4.13
2023-08-05T23:32:12.091Z,4.75
2023-08-05T23:34:57.990Z,4.28
2023-08-05T23:37:43.996Z,3.60
2023-08-05T23:40:30.102Z,4.22
2023-08-05T23:43:16.577Z,4.40
2023-08-05T23:46:02.872Z,4.63
2023-08-05T23:48:49.019Z,5.10
2023-08-05T23:51:34.913Z,5.70
2023-08-05T23:54:20.846Z,4.90
2023-08-05T23:57:07.143Z,5.13
2023-08-05T23:59:53.306Z,4.78
